Tifton, GA (31794)

3:17 AM EDT on July 26, 2014 (GMT -0400)
Wood Triple Lake Road (KGATIFTO8) Elev 322 ft | 31.41 °N, 83.43 °W | Change Station

Current weather conditions updated 1 minute ago

Clear
Clear
76.1 °F
Feels Like 76 °F
N
0.0
Wind Variable Wind from SSW
Gusts 10.0 mph

Today is forecast to be nearly the same temperature as yesterday.

Today
High -- | Low -- °F
--% Chance of Precip.
Yesterday
High -- | Low -- °F
Precip. -- in
6:46 AM 8:34 PM
Waning Crescent, 0% visible
Pressure 30.01 in
Visibility 10.0 miles
Clouds Clear
Heat Index 76 °F
Dew Point 74 °F
Humidity 94%
Rainfall 0.00 in
Snow Depth Not available.
UV 0 out of 12
Pollen 4.50 out of 12
Air Quality Not available.
Flu Activity Not available.
METAR KTMA 260650Z AUTO 00000KT 10SM CLR 25/24 A3001 RMK AO2 T02450235 TSNO

More Conditions Fewer Conditions

Pressure 30.01 in
Visibility 10.0 miles
Clouds Clear
Heat Index 76 °F
Dew Point 74 °F
Humidity 94%
Rainfall 0.00 in
Snow Depth Not available.
UV 0 out of 12
Pollen 4.50 out of 12
Air Quality Not available.
Flu Activity Not available.
METAR KTMA 260650Z AUTO 00000KT 10SM CLR 25/24 A3001 RMK AO2 T02450235 TSNO

More Conditions Fewer Conditions

10-Day Weather Forecast

Almanac

Astronomy

Jul. 26, 2014 Rise Set
Actual Time 6:46 AM EDT 8:34 PM EDT
Civil Twilight 6:19 AM EDT 9:00 PM EDT
Nautical Twilight 5:47 AM EDT 9:33 PM EDT
Astronomical Twilight 5:13 AM EDT 10:07 PM EDT
Moon 6:34 AM EDT 8:14 PM EDT
Length of Visible Light 14h 41m
Length of Day
13h 47m
Tomorrow will be 1m 17s shorter.
Waning Crescent, 0% of the Moon is Illuminated
Today
Waning Crescent
Jul 26
New
Aug 3
First Quarter
Aug 10
Full
Aug 17
Last Quarter

Today's Extremes

State Highs State Lows

Community

WunderPhotos

Upload Photos

1,737,524 photos uploaded!

Nearby

Snow Depth

Station Depth Elevation
No new snow has been reported.

Earthquake Activity

City Distance Mag. Time & Date
No recent earthquake activity has been reported nearby.
Minimum magnitude displayed is 2.5.

Coastal Water Temperatures

Place Temperature
No Stations Reporting

Nearby Weather Stations

Station Location Temp. Heat Index Dew Point Humidity Wind Precip. Elev Updated Type
Forest Lakes, Tifton, GA 77.6 °F 80 °F 74 °F 90% West  at  0.0 mph 0.00 in / hr 329 ft 2:00 AM EDT Normal
Wood Triple Lake Road, Tifton, GA 76.1 °F 76 °F 74 °F 94% SSW  at  0.0 mph 0.00 in / hr 322 ft 3:15 AM EDT Normal
APRSWXNET Ashburn GA, Ashburn, GA 76 °F 75 °F 75 °F 96% SSW  at  0 mph 0.00 in / hr 452 ft 2:33 AM EDT MADIS
Worth County High School, Sylvester, GA 75.9 °F 75 °F 74 °F 93% East  at  1.0 mph 0.00 in / hr 436 ft 3:10 AM EDT Normal
Hull Avenue, Nashville, GA, Nashville, GA 77.7 °F 80 °F 72 °F 82% SW  at  0.0 mph - / hr 233 ft 3:11 AM EDT Normal
City of Moultrie Service Center, Moultrie, GA 77.1 °F 78 °F 75 °F 92% West  at  2.0 mph 0.00 in / hr 299 ft 3:07 AM EDT Normal
RAWS ADEL GA, Cecil, GA 76 °F 76 °F 74 °F 94% South  at  2 mph 0.00 in / hr 231 ft 2:04 AM EDT MADIS

Show More Stations Show Fewer Stations